Terminal Aerodrome Forecast
Issued by NWS Denver/Boulder, CO

Home | Current Version | Previous Version | Text Only | Print | Product List | Glossary On
Versions: 1 2 3 4 5 6 7 8 9 10 11 12 13 14 15 16 17 18 19 20 21 22 23 24 25 26 27 28 29 30 31 32 33 34 35 36 37 38 39 40 41 42 43 44 45 46 47 48 49 50
000
FTUS45 KBOU 241725
TAFDEN
TAF
KDEN 241725Z 2418/2524 06011KT P6SM FEW080 BKN220
     FM241900 08010KT P6SM FEW080 SCT150 BKN200
     FM242100 10011KT P6SM VCSH SCT080 BKN150 BKN200
     FM250000 06009KT P6SM FEW060 SCT080 BKN140
     FM250400 36011KT P6SM FEW060 BKN080 BKN140
      TEMPO 2504/2508 -SHRA BKN060
     FM251100 25006KT P6SM FEW010 SCT080 BKN220
     FM251600 33010KT P6SM SCT070 BKN140
     FM252100 03011KT P6SM -SHRA BKN060=

USA.gov is the U.S. government's official web portal to all federal, state and local government web resources and services.